This is the latest recevied weather packets stored in our database for station/object KD4WLE. If no packets are shown the sender has not sent any weather packets the latest 10 day(s).
| Time | Temp. | Humidity | Pressure | Rain* | Wind** | Luminosity | Snow |
|---|---|---|---|---|---|---|---|
| 1777487556 | 28.89° C | 60% | 1015.6 hPa | 0 mm | - | 301 W/m² | - |
| 1777487252 | 28.89° C | 60% | 1015.6 hPa | 0 mm | - | 339 W/m² | - |
| 1777486948 | 28.89° C | 60% | 1015.6 hPa | 0 mm | - | 302 W/m² | - |
| 1777486645 | 28.89° C | 59% | 1015.6 hPa | 0 mm | - | 495 W/m² | - |
| 1777486343 | 28.89° C | 59% | 1015.6 hPa | 0 mm | - | 435 W/m² | - |
| 1777486040 | 29.44° C | 58% | 1015.7 hPa | 0 mm | - | 628 W/m² | - |
| 1777485737 | 28.89° C | 57% | 1015.7 hPa | 0 mm | - | 653 W/m² | - |
| 1777485432 | 28.89° C | 58% | 1015.7 hPa | 0 mm | - | 621 W/m² | - |
| 1777485128 | 29.44° C | 59% | 1016.2 hPa | 0 mm | - | 483 W/m² | - |
| 1777484825 | 30° C | 58% | 1016 hPa | 0 mm | - | 939 W/m² | - |
| 1777484522 | 30° C | 61% | 1016.1 hPa | 0 mm | - | 820 W/m² | - |
| 1777484219 | 30.56° C | 56% | 1016.3 hPa | 0 mm | - | 829 W/m² | - |
| 1777483915 | 30.56° C | 56% | 1016.3 hPa | 0 mm | - | 814 W/m² | - |
| 1777483611 | 30° C | 58% | 1016.1 hPa | 0 mm | - | 824 W/m² | - |
| 1777483306 | 29.44° C | 59% | 1016.3 hPa | 0 mm | - | 857 W/m² | - |
| 1777483003 | 30° C | 60% | 1016.3 hPa | 0 mm | - | 823 W/m² | - |
| 1777482699 | 30° C | 58% | 1016.5 hPa | 0 mm | - | 881 W/m² | - |
| 1777482396 | 30° C | 59% | 1016.8 hPa | 0 mm | - | 476 W/m² | - |
| 1777482093 | 30° C | 58% | 1016.5 hPa | 0 mm | - | 772 W/m² | - |
| 1777481791 | 30° C | 57% | 1016.8 hPa | 0 mm | - | 768 W/m² | - |
| 1777481488 | 29.44° C | 60% | 1016.8 hPa | 0 mm | - | 744 W/m² | - |
| 1777481184 | 28.89° C | 65% | 1016.6 hPa | 0 mm | - | 776 W/m² | - |
| 1777480881 | 28.89° C | 65% | 1017 hPa | 0 mm | - | 789 W/m² | - |
| 1777480577 | 28.89° C | 69% | 1017.1 hPa | 0 mm | - | 775 W/m² | - |
| 1777480275 | 29.44° C | 68% | 1017.1 hPa | 0 mm | - | 723 W/m² | - |
* Rain latest hour (hover to see other rain measurements)
** Current wind speed in m/s (hover to see current wind gust speed)